sensor_id;sensor_type;location;lat;lon;timestamp;P1;durP1;ratioP1;P2;durP2;ratioP2
21128;SDS011;10722;51.910;8.352;2022-11-20T00:00:28;64.30;;;35.87;;
21128;SDS011;10722;51.910;8.352;2022-11-20T00:03:13;65.50;;;36.10;;
21128;SDS011;10722;51.910;8.352;2022-11-20T00:06:02;68.37;;;36.23;;
21128;SDS011;10722;51.910;8.352;2022-11-20T00:08:49;61.47;;;33.73;;
21128;SDS011;10722;51.910;8.352;2022-11-20T00:11:35;63.87;;;36.67;;
21128;SDS011;10722;51.910;8.352;2022-11-20T00:14:20;78.70;;;39.33;;
21128;SDS011;10722;51.910;8.352;2022-11-20T00:17:05;74.97;;;37.23;;
21128;SDS011;10722;51.910;8.352;2022-11-20T00:19:50;64.77;;;34.30;;
21128;SDS011;10722;51.910;8.352;2022-11-20T00:22:35;69.13;;;36.07;;
21128;SDS011;10722;51.910;8.352;2022-11-20T00:25:21;68.20;;;35.97;;
21128;SDS011;10722;51.910;8.352;2022-11-20T00:28:06;70.70;;;34.53;;
21128;SDS011;10722;51.910;8.352;2022-11-20T00:30:52;71.83;;;35.63;;
21128;SDS011;10722;51.910;8.352;2022-11-20T00:33:37;71.17;;;36.93;;
21128;SDS011;10722;51.910;8.352;2022-11-20T00:36:23;72.93;;;38.20;;
21128;SDS011;10722;51.910;8.352;2022-11-20T00:39:10;63.77;;;34.07;;
21128;SDS011;10722;51.910;8.352;2022-11-20T00:41:54;63.90;;;34.27;;
21128;SDS011;10722;51.910;8.352;2022-11-20T00:44:40;64.57;;;35.30;;
21128;SDS011;10722;51.910;8.352;2022-11-20T00:47:26;65.07;;;35.40;;
21128;SDS011;10722;51.910;8.352;2022-11-20T00:50:11;63.00;;;33.80;;
21128;SDS011;10722;51.910;8.352;2022-11-20T00:52:57;58.87;;;34.53;;
21128;SDS011;10722;51.910;8.352;2022-11-20T00:55:42;60.83;;;35.00;;
21128;SDS011;10722;51.910;8.352;2022-11-20T00:58:31;58.83;;;33.33;;
21128;SDS011;10722;51.910;8.352;2022-11-20T01:01:19;60.97;;;34.90;;
21128;SDS011;10722;51.910;8.352;2022-11-20T01:04:06;61.17;;;35.07;;
21128;SDS011;10722;51.910;8.352;2022-11-20T01:06:51;58.43;;;31.60;;
21128;SDS011;10722;51.910;8.352;2022-11-20T01:09:36;53.77;;;30.30;;
21128;SDS011;10722;51.910;8.352;2022-11-20T01:12:21;54.57;;;31.97;;
21128;SDS011;10722;51.910;8.352;2022-11-20T01:15:07;57.07;;;32.90;;
21128;SDS011;10722;51.910;8.352;2022-11-20T01:17:52;62.00;;;35.43;;
21128;SDS011;10722;51.910;8.352;2022-11-20T01:20:38;59.50;;;33.60;;
21128;SDS011;10722;51.910;8.352;2022-11-20T01:23:23;56.53;;;33.17;;
21128;SDS011;10722;51.910;8.352;2022-11-20T01:26:12;56.10;;;33.30;;
21128;SDS011;10722;51.910;8.352;2022-11-20T01:28:59;61.93;;;34.33;;
21128;SDS011;10722;51.910;8.352;2022-11-20T01:31:45;55.87;;;30.67;;
21128;SDS011;10722;51.910;8.352;2022-11-20T01:34:30;51.97;;;29.93;;
21128;SDS011;10722;51.910;8.352;2022-11-20T01:37:16;56.93;;;32.07;;
21128;SDS011;10722;51.910;8.352;2022-11-20T01:40:01;58.17;;;33.60;;
21128;SDS011;10722;51.910;8.352;2022-11-20T01:42:47;58.07;;;33.13;;
21128;SDS011;10722;51.910;8.352;2022-11-20T01:46:23;51.87;;;31.20;;
21128;SDS011;10722;51.910;8.352;2022-11-20T01:49:03;52.40;;;29.97;;
21128;SDS011;10722;51.910;8.352;2022-11-20T01:51:56;58.23;;;32.40;;
21128;SDS011;10722;51.910;8.352;2022-11-20T01:57:38;54.17;;;31.17;;
21128;SDS011;10722;51.910;8.352;2022-11-20T02:00:26;56.07;;;30.00;;
21128;SDS011;10722;51.910;8.352;2022-11-20T02:03:18;56.20;;;31.90;;
21128;SDS011;10722;51.910;8.352;2022-11-20T02:06:10;56.23;;;32.97;;
21128;SDS011;10722;51.910;8.352;2022-11-20T02:09:02;59.60;;;33.27;;
21128;SDS011;10722;51.910;8.352;2022-11-20T02:11:47;55.87;;;33.17;;
21128;SDS011;10722;51.910;8.352;2022-11-20T02:14:32;56.80;;;32.03;;
21128;SDS011;10722;51.910;8.352;2022-11-20T02:17:17;50.50;;;30.57;;
21128;SDS011;10722;51.910;8.352;2022-11-20T02:20:03;52.20;;;30.70;;
21128;SDS011;10722;51.910;8.352;2022-11-20T02:22:50;54.07;;;30.60;;
21128;SDS011;10722;51.910;8.352;2022-11-20T02:25:44;52.00;;;30.83;;
21128;SDS011;10722;51.910;8.352;2022-11-20T02:28:31;51.47;;;29.70;;
21128;SDS011;10722;51.910;8.352;2022-11-20T02:31:17;52.23;;;29.10;;
21128;SDS011;10722;51.910;8.352;2022-11-20T02:34:02;52.57;;;30.20;;
21128;SDS011;10722;51.910;8.352;2022-11-20T02:36:47;51.07;;;30.23;;
21128;SDS011;10722;51.910;8.352;2022-11-20T02:39:34;49.33;;;28.07;;
21128;SDS011;10722;51.910;8.352;2022-11-20T02:42:19;52.30;;;29.87;;
21128;SDS011;10722;51.910;8.352;2022-11-20T02:45:05;50.03;;;28.23;;
21128;SDS011;10722;51.910;8.352;2022-11-20T02:47:51;50.87;;;29.00;;
21128;SDS011;10722;51.910;8.352;2022-11-20T02:50:37;53.67;;;29.20;;
21128;SDS011;10722;51.910;8.352;2022-11-20T02:53:23;50.33;;;29.33;;
21128;SDS011;10722;51.910;8.352;2022-11-20T02:56:08;54.10;;;29.37;;
21128;SDS011;10722;51.910;8.352;2022-11-20T02:58:53;50.13;;;28.97;;
21128;SDS011;10722;51.910;8.352;2022-11-20T03:01:38;52.33;;;30.23;;
21128;SDS011;10722;51.910;8.352;2022-11-20T03:04:24;49.37;;;28.47;;
21128;SDS011;10722;51.910;8.352;2022-11-20T03:07:09;51.07;;;29.03;;
21128;SDS011;10722;51.910;8.352;2022-11-20T03:09:54;47.40;;;27.50;;
21128;SDS011;10722;51.910;8.352;2022-11-20T03:12:40;51.67;;;29.90;;
21128;SDS011;10722;51.910;8.352;2022-11-20T03:15:25;48.77;;;28.00;;
21128;SDS011;10722;51.910;8.352;2022-11-20T03:18:13;50.00;;;28.07;;
21128;SDS011;10722;51.910;8.352;2022-11-20T03:20:58;50.60;;;29.63;;
21128;SDS011;10722;51.910;8.352;2022-11-20T03:23:44;51.67;;;28.53;;
21128;SDS011;10722;51.910;8.352;2022-11-20T03:26:29;54.30;;;29.37;;
21128;SDS011;10722;51.910;8.352;2022-11-20T03:29:14;50.80;;;28.30;;
21128;SDS011;10722;51.910;8.352;2022-11-20T03:31:59;50.43;;;28.40;;
21128;SDS011;10722;51.910;8.352;2022-11-20T03:34:45;53.40;;;29.70;;
21128;SDS011;10722;51.910;8.352;2022-11-20T03:37:30;47.60;;;27.97;;
21128;SDS011;10722;51.910;8.352;2022-11-20T03:40:15;49.00;;;28.63;;
21128;SDS011;10722;51.910;8.352;2022-11-20T03:43:00;47.50;;;27.07;;
21128;SDS011;10722;51.910;8.352;2022-11-20T03:45:45;44.90;;;25.83;;
21128;SDS011;10722;51.910;8.352;2022-11-20T03:48:31;48.27;;;27.70;;
21128;SDS011;10722;51.910;8.352;2022-11-20T03:51:26;51.53;;;28.57;;
21128;SDS011;10722;51.910;8.352;2022-11-20T03:54:13;48.60;;;28.20;;
21128;SDS011;10722;51.910;8.352;2022-11-20T03:56:58;52.63;;;29.90;;
21128;SDS011;10722;51.910;8.352;2022-11-20T03:59:44;49.33;;;29.80;;
21128;SDS011;10722;51.910;8.352;2022-11-20T04:02:29;52.23;;;29.57;;
21128;SDS011;10722;51.910;8.352;2022-11-20T04:05:15;53.67;;;29.20;;
21128;SDS011;10722;51.910;8.352;2022-11-20T04:08:00;53.53;;;28.97;;
21128;SDS011;10722;51.910;8.352;2022-11-20T04:10:45;49.90;;;28.17;;
21128;SDS011;10722;51.910;8.352;2022-11-20T04:13:30;56.87;;;29.87;;
21128;SDS011;10722;51.910;8.352;2022-11-20T04:16:15;51.47;;;27.10;;
21128;SDS011;10722;51.910;8.352;2022-11-20T04:19:02;46.37;;;26.43;;
21128;SDS011;10722;51.910;8.352;2022-11-20T04:21:49;52.97;;;27.57;;
21128;SDS011;10722;51.910;8.352;2022-11-20T04:24:34;50.90;;;27.63;;
21128;SDS011;10722;51.910;8.352;2022-11-20T04:27:19;51.40;;;28.83;;
21128;SDS011;10722;51.910;8.352;2022-11-20T04:30:04;47.17;;;26.53;;
21128;SDS011;10722;51.910;8.352;2022-11-20T04:32:49;48.07;;;28.07;;
21128;SDS011;10722;51.910;8.352;2022-11-20T04:35:35;52.60;;;28.27;;
21128;SDS011;10722;51.910;8.352;2022-11-20T04:38:21;50.40;;;28.40;;
21128;SDS011;10722;51.910;8.352;2022-11-20T04:41:06;49.33;;;28.07;;
21128;SDS011;10722;51.910;8.352;2022-11-20T04:43:55;52.37;;;28.27;;
21128;SDS011;10722;51.910;8.352;2022-11-20T04:46:42;51.60;;;28.27;;
21128;SDS011;10722;51.910;8.352;2022-11-20T04:49:27;51.07;;;29.53;;
21128;SDS011;10722;51.910;8.352;2022-11-20T04:52:12;48.10;;;27.67;;
21128;SDS011;10722;51.910;8.352;2022-11-20T04:54:58;48.67;;;28.30;;
21128;SDS011;10722;51.910;8.352;2022-11-20T04:57:43;51.67;;;26.67;;
21128;SDS011;10722;51.910;8.352;2022-11-20T05:00:28;46.47;;;26.07;;
21128;SDS011;10722;51.910;8.352;2022-11-20T05:03:14;48.67;;;28.17;;
21128;SDS011;10722;51.910;8.352;2022-11-20T05:06:00;49.77;;;27.60;;
21128;SDS011;10722;51.910;8.352;2022-11-20T05:08:45;47.50;;;26.83;;
21128;SDS011;10722;51.910;8.352;2022-11-20T05:11:31;48.77;;;28.23;;
21128;SDS011;10722;51.910;8.352;2022-11-20T05:14:16;46.50;;;25.90;;
21128;SDS011;10722;51.910;8.352;2022-11-20T05:17:02;46.27;;;25.57;;
21128;SDS011;10722;51.910;8.352;2022-11-20T05:19:47;51.63;;;28.27;;
21128;SDS011;10722;51.910;8.352;2022-11-20T05:22:37;42.93;;;22.97;;
21128;SDS011;10722;51.910;8.352;2022-11-20T05:25:22;41.77;;;23.70;;
21128;SDS011;10722;51.910;8.352;2022-11-20T05:28:08;38.90;;;21.10;;
21128;SDS011;10722;51.910;8.352;2022-11-20T05:30:53;37.67;;;20.33;;
21128;SDS011;10722;51.910;8.352;2022-11-20T05:33:41;36.63;;;20.60;;
21128;SDS011;10722;51.910;8.352;2022-11-20T05:36:27;32.40;;;18.63;;
21128;SDS011;10722;51.910;8.352;2022-11-20T05:39:12;35.87;;;19.77;;
21128;SDS011;10722;51.910;8.352;2022-11-20T05:41:57;38.27;;;18.83;;
21128;SDS011;10722;51.910;8.352;2022-11-20T05:44:43;36.10;;;19.90;;
21128;SDS011;10722;51.910;8.352;2022-11-20T05:47:28;35.07;;;19.13;;
21128;SDS011;10722;51.910;8.352;2022-11-20T05:50:17;38.07;;;20.87;;
21128;SDS011;10722;51.910;8.352;2022-11-20T05:53:02;37.17;;;20.50;;
21128;SDS011;10722;51.910;8.352;2022-11-20T05:55:55;36.77;;;20.43;;
21128;SDS011;10722;51.910;8.352;2022-11-20T05:58:41;36.57;;;20.10;;
21128;SDS011;10722;51.910;8.352;2022-11-20T06:01:26;38.43;;;20.50;;
21128;SDS011;10722;51.910;8.352;2022-11-20T06:04:12;35.40;;;20.50;;
21128;SDS011;10722;51.910;8.352;2022-11-20T06:06:57;36.30;;;19.97;;
21128;SDS011;10722;51.910;8.352;2022-11-20T06:09:43;32.30;;;18.50;;
21128;SDS011;10722;51.910;8.352;2022-11-20T06:12:30;32.90;;;18.37;;
21128;SDS011;10722;51.910;8.352;2022-11-20T06:15:16;35.27;;;18.73;;
21128;SDS011;10722;51.910;8.352;2022-11-20T06:18:01;33.87;;;18.23;;
21128;SDS011;10722;51.910;8.352;2022-11-20T06:20:46;34.77;;;18.43;;
21128;SDS011;10722;51.910;8.352;2022-11-20T06:23:32;31.90;;;18.17;;
21128;SDS011;10722;51.910;8.352;2022-11-20T06:26:19;32.20;;;18.03;;
21128;SDS011;10722;51.910;8.352;2022-11-20T06:29:06;33.37;;;18.07;;
21128;SDS011;10722;51.910;8.352;2022-11-20T06:31:51;33.53;;;18.87;;
21128;SDS011;10722;51.910;8.352;2022-11-20T06:34:36;31.80;;;18.40;;
21128;SDS011;10722;51.910;8.352;2022-11-20T06:37:21;34.07;;;18.67;;
21128;SDS011;10722;51.910;8.352;2022-11-20T06:40:07;32.63;;;17.43;;
21128;SDS011;10722;51.910;8.352;2022-11-20T06:42:53;33.53;;;18.03;;
21128;SDS011;10722;51.910;8.352;2022-11-20T06:45:39;33.07;;;17.27;;
21128;SDS011;10722;51.910;8.352;2022-11-20T06:48:28;33.67;;;17.93;;
21128;SDS011;10722;51.910;8.352;2022-11-20T06:51:13;32.30;;;17.83;;
21128;SDS011;10722;51.910;8.352;2022-11-20T06:53:59;32.37;;;17.17;;
21128;SDS011;10722;51.910;8.352;2022-11-20T06:56:47;31.00;;;17.63;;
21128;SDS011;10722;51.910;8.352;2022-11-20T06:59:33;31.20;;;17.30;;
21128;SDS011;10722;51.910;8.352;2022-11-20T07:02:19;29.47;;;17.03;;
21128;SDS011;10722;51.910;8.352;2022-11-20T07:05:04;32.13;;;17.50;;
21128;SDS011;10722;51.910;8.352;2022-11-20T07:07:49;31.20;;;16.73;;
21128;SDS011;10722;51.910;8.352;2022-11-20T07:10:35;32.90;;;17.23;;
21128;SDS011;10722;51.910;8.352;2022-11-20T07:13:20;31.00;;;17.20;;
21128;SDS011;10722;51.910;8.352;2022-11-20T07:16:06;32.07;;;17.03;;
21128;SDS011;10722;51.910;8.352;2022-11-20T07:18:52;33.80;;;18.30;;
21128;SDS011;10722;51.910;8.352;2022-11-20T07:21:37;33.63;;;17.70;;
21128;SDS011;10722;51.910;8.352;2022-11-20T07:24:22;35.53;;;17.63;;
21128;SDS011;10722;51.910;8.352;2022-11-20T07:27:07;33.60;;;18.00;;
21128;SDS011;10722;51.910;8.352;2022-11-20T07:29:52;37.40;;;18.57;;
21128;SDS011;10722;51.910;8.352;2022-11-20T07:32:38;36.07;;;18.33;;
21128;SDS011;10722;51.910;8.352;2022-11-20T07:35:23;36.37;;;19.03;;
21128;SDS011;10722;51.910;8.352;2022-11-20T07:38:09;33.47;;;17.23;;
21128;SDS011;10722;51.910;8.352;2022-11-20T07:40:54;35.13;;;18.23;;
21128;SDS011;10722;51.910;8.352;2022-11-20T07:43:40;33.90;;;17.83;;
21128;SDS011;10722;51.910;8.352;2022-11-20T07:46:26;35.47;;;18.70;;
21128;SDS011;10722;51.910;8.352;2022-11-20T07:49:11;35.80;;;19.23;;
21128;SDS011;10722;51.910;8.352;2022-11-20T07:51:56;32.63;;;17.80;;
21128;SDS011;10722;51.910;8.352;2022-11-20T07:54:48;33.80;;;18.40;;
21128;SDS011;10722;51.910;8.352;2022-11-20T07:57:33;34.73;;;16.53;;
21128;SDS011;10722;51.910;8.352;2022-11-20T08:00:18;30.03;;;16.10;;
21128;SDS011;10722;51.910;8.352;2022-11-20T08:03:04;32.07;;;17.07;;
21128;SDS011;10722;51.910;8.352;2022-11-20T08:05:49;29.80;;;16.07;;
21128;SDS011;10722;51.910;8.352;2022-11-20T08:08:34;29.57;;;16.07;;
21128;SDS011;10722;51.910;8.352;2022-11-20T08:11:26;29.63;;;16.20;;
21128;SDS011;10722;51.910;8.352;2022-11-20T08:14:11;28.53;;;15.20;;
21128;SDS011;10722;51.910;8.352;2022-11-20T08:16:56;29.13;;;16.20;;
21128;SDS011;10722;51.910;8.352;2022-11-20T08:19:41;30.23;;;16.07;;
21128;SDS011;10722;51.910;8.352;2022-11-20T08:22:28;30.00;;;15.60;;
21128;SDS011;10722;51.910;8.352;2022-11-20T08:25:13;28.33;;;14.53;;
21128;SDS011;10722;51.910;8.352;2022-11-20T08:27:59;28.93;;;14.73;;
21128;SDS011;10722;51.910;8.352;2022-11-20T08:30:57;27.57;;;14.80;;
21128;SDS011;10722;51.910;8.352;2022-11-20T08:33:46;29.03;;;15.20;;
21128;SDS011;10722;51.910;8.352;2022-11-20T08:36:32;29.13;;;15.23;;
21128;SDS011;10722;51.910;8.352;2022-11-20T08:39:18;27.97;;;14.60;;
21128;SDS011;10722;51.910;8.352;2022-11-20T08:42:07;26.03;;;14.60;;
21128;SDS011;10722;51.910;8.352;2022-11-20T08:44:53;27.17;;;14.77;;
21128;SDS011;10722;51.910;8.352;2022-11-20T08:47:38;28.50;;;15.47;;
21128;SDS011;10722;51.910;8.352;2022-11-20T08:50:23;29.80;;;15.90;;
21128;SDS011;10722;51.910;8.352;2022-11-20T08:53:08;29.10;;;16.30;;
21128;SDS011;10722;51.910;8.352;2022-11-20T08:55:53;30.83;;;16.13;;
21128;SDS011;10722;51.910;8.352;2022-11-20T08:58:38;31.67;;;16.87;;
21128;SDS011;10722;51.910;8.352;2022-11-20T09:01:43;51.03;;;27.57;;
21128;SDS011;10722;51.910;8.352;2022-11-20T09:04:28;31.27;;;17.07;;
21128;SDS011;10722;51.910;8.352;2022-11-20T09:07:14;29.73;;;16.10;;
21128;SDS011;10722;51.910;8.352;2022-11-20T09:09:59;30.67;;;15.47;;
21128;SDS011;10722;51.910;8.352;2022-11-20T09:13:04;29.00;;;15.90;;
21128;SDS011;10722;51.910;8.352;2022-11-20T09:15:56;30.57;;;16.07;;
21128;SDS011;10722;51.910;8.352;2022-11-20T09:18:43;29.93;;;16.60;;
21128;SDS011;10722;51.910;8.352;2022-11-20T09:21:29;32.00;;;16.93;;
21128;SDS011;10722;51.910;8.352;2022-11-20T09:24:18;28.77;;;15.93;;
21128;SDS011;10722;51.910;8.352;2022-11-20T09:27:03;30.07;;;15.97;;
21128;SDS011;10722;51.910;8.352;2022-11-20T09:29:49;30.67;;;16.43;;
21128;SDS011;10722;51.910;8.352;2022-11-20T09:32:34;31.20;;;16.77;;
21128;SDS011;10722;51.910;8.352;2022-11-20T09:35:20;30.60;;;15.77;;
21128;SDS011;10722;51.910;8.352;2022-11-20T09:38:08;28.93;;;15.23;;
21128;SDS011;10722;51.910;8.352;2022-11-20T09:53:12;27.93;;;15.87;;
21128;SDS011;10722;51.910;8.352;2022-11-20T09:56:06;26.50;;;14.83;;
21128;SDS011;10722;51.910;8.352;2022-11-20T09:58:57;29.17;;;15.23;;
21128;SDS011;10722;51.910;8.352;2022-11-20T10:01:47;26.23;;;14.93;;
21128;SDS011;10722;51.910;8.352;2022-11-20T10:04:33;26.07;;;14.70;;
21128;SDS011;10722;51.910;8.352;2022-11-20T10:07:27;26.70;;;14.60;;
21128;SDS011;10722;51.910;8.352;2022-11-20T10:10:19;26.23;;;15.10;;
21128;SDS011;10722;51.910;8.352;2022-11-20T10:13:20;25.33;;;14.57;;
21128;SDS011;10722;51.910;8.352;2022-11-20T10:19:40;26.23;;;14.70;;
21128;SDS011;10722;51.910;8.352;2022-11-20T10:23:02;27.10;;;15.13;;
21128;SDS011;10722;51.910;8.352;2022-11-20T10:31:48;28.33;;;16.10;;
21128;SDS011;10722;51.910;8.352;2022-11-20T10:34:47;25.83;;;15.73;;
21128;SDS011;10722;51.910;8.352;2022-11-20T10:37:34;28.27;;;16.63;;
21128;SDS011;10722;51.910;8.352;2022-11-20T10:40:35;28.90;;;17.23;;
21128;SDS011;10722;51.910;8.352;2022-11-20T10:43:28;30.43;;;17.43;;
21128;SDS011;10722;51.910;8.352;2022-11-20T10:46:18;26.13;;;16.17;;
21128;SDS011;10722;51.910;8.352;2022-11-20T10:49:11;28.27;;;16.07;;
21128;SDS011;10722;51.910;8.352;2022-11-20T10:52:02;29.10;;;16.47;;
21128;SDS011;10722;51.910;8.352;2022-11-20T10:54:58;26.83;;;15.87;;
21128;SDS011;10722;51.910;8.352;2022-11-20T11:01:15;26.37;;;15.00;;
21128;SDS011;10722;51.910;8.352;2022-11-20T11:04:06;27.17;;;15.60;;
21128;SDS011;10722;51.910;8.352;2022-11-20T11:07:27;24.90;;;14.63;;
21128;SDS011;10722;51.910;8.352;2022-11-20T11:10:31;27.20;;;16.03;;
21128;SDS011;10722;51.910;8.352;2022-11-20T11:13:25;25.97;;;14.23;;
21128;SDS011;10722;51.910;8.352;2022-11-20T11:16:18;26.87;;;14.87;;
21128;SDS011;10722;51.910;8.352;2022-11-20T11:19:13;26.50;;;14.90;;
21128;SDS011;10722;51.910;8.352;2022-11-20T11:21:59;25.40;;;14.50;;
21128;SDS011;10722;51.910;8.352;2022-11-20T11:24:51;29.80;;;15.73;;
21128;SDS011;10722;51.910;8.352;2022-11-20T11:27:45;26.60;;;15.30;;
21128;SDS011;10722;51.910;8.352;2022-11-20T11:30:44;26.57;;;14.30;;
21128;SDS011;10722;51.910;8.352;2022-11-20T11:33:31;26.13;;;15.13;;
21128;SDS011;10722;51.910;8.352;2022-11-20T11:36:18;27.13;;;15.50;;
21128;SDS011;10722;51.910;8.352;2022-11-20T11:39:11;30.67;;;16.23;;
21128;SDS011;10722;51.910;8.352;2022-11-20T11:42:00;27.17;;;15.50;;
21128;SDS011;10722;51.910;8.352;2022-11-20T11:44:47;27.47;;;14.77;;
21128;SDS011;10722;51.910;8.352;2022-11-20T11:47:36;29.07;;;16.60;;
21128;SDS011;10722;51.910;8.352;2022-11-20T11:50:29;28.60;;;16.80;;
21128;SDS011;10722;51.910;8.352;2022-11-20T11:53:18;26.93;;;15.53;;
21128;SDS011;10722;51.910;8.352;2022-11-20T11:56:09;28.50;;;16.37;;
21128;SDS011;10722;51.910;8.352;2022-11-20T11:58:56;30.30;;;17.60;;
21128;SDS011;10722;51.910;8.352;2022-11-20T12:01:57;30.83;;;17.07;;
21128;SDS011;10722;51.910;8.352;2022-11-20T12:04:50;33.37;;;18.37;;
21128;SDS011;10722;51.910;8.352;2022-11-20T12:07:42;31.50;;;17.97;;
21128;SDS011;10722;51.910;8.352;2022-11-20T12:10:50;31.83;;;18.20;;
21128;SDS011;10722;51.910;8.352;2022-11-20T12:13:58;31.80;;;18.70;;
21128;SDS011;10722;51.910;8.352;2022-11-20T12:16:57;31.60;;;17.57;;
21128;SDS011;10722;51.910;8.352;2022-11-20T12:19:42;31.50;;;17.83;;
21128;SDS011;10722;51.910;8.352;2022-11-20T12:22:38;30.70;;;17.60;;
21128;SDS011;10722;51.910;8.352;2022-11-20T12:25:31;28.37;;;16.47;;
21128;SDS011;10722;51.910;8.352;2022-11-20T12:43:21;32.27;;;18.50;;
21128;SDS011;10722;51.910;8.352;2022-11-20T12:46:15;31.50;;;18.67;;
21128;SDS011;10722;51.910;8.352;2022-11-20T12:57:58;35.37;;;19.60;;
21128;SDS011;10722;51.910;8.352;2022-11-20T13:01:01;31.87;;;18.70;;
21128;SDS011;10722;51.910;8.352;2022-11-20T13:04:47;31.73;;;19.20;;
21128;SDS011;10722;51.910;8.352;2022-11-20T13:07:22;29.77;;;16.77;;
21128;SDS011;10722;51.910;8.352;2022-11-20T13:10:15;29.70;;;17.70;;
21128;SDS011;10722;51.910;8.352;2022-11-20T13:16:04;27.67;;;16.10;;
21128;SDS011;10722;51.910;8.352;2022-11-20T13:19:02;27.57;;;16.63;;
21128;SDS011;10722;51.910;8.352;2022-11-20T13:21:49;27.60;;;16.07;;
21128;SDS011;10722;51.910;8.352;2022-11-20T13:24:35;29.07;;;17.23;;
21128;SDS011;10722;51.910;8.352;2022-11-20T13:27:21;27.87;;;16.37;;
21128;SDS011;10722;51.910;8.352;2022-11-20T13:30:17;29.20;;;17.27;;
21128;SDS011;10722;51.910;8.352;2022-11-20T13:33:20;30.17;;;17.57;;
21128;SDS011;10722;51.910;8.352;2022-11-20T13:36:26;33.53;;;18.43;;
21128;SDS011;10722;51.910;8.352;2022-11-20T13:39:23;31.53;;;17.83;;
21128;SDS011;10722;51.910;8.352;2022-11-20T13:45:00;28.43;;;16.60;;
21128;SDS011;10722;51.910;8.352;2022-11-20T13:47:48;31.10;;;17.73;;
21128;SDS011;10722;51.910;8.352;2022-11-20T14:02:34;32.40;;;18.20;;
21128;SDS011;10722;51.910;8.352;2022-11-20T14:05:23;33.03;;;19.07;;
21128;SDS011;10722;51.910;8.352;2022-11-20T14:08:13;31.83;;;19.40;;
21128;SDS011;10722;51.910;8.352;2022-11-20T14:11:12;35.50;;;19.77;;
21128;SDS011;10722;51.910;8.352;2022-11-20T14:16:49;34.73;;;20.80;;
21128;SDS011;10722;51.910;8.352;2022-11-20T14:19:35;34.00;;;20.20;;
21128;SDS011;10722;51.910;8.352;2022-11-20T14:22:27;51.20;;;31.17;;
21128;SDS011;10722;51.910;8.352;2022-11-20T14:28:18;54.03;;;29.97;;
21128;SDS011;10722;51.910;8.352;2022-11-20T14:31:11;42.97;;;23.90;;
21128;SDS011;10722;51.910;8.352;2022-11-20T14:34:10;38.93;;;22.17;;
21128;SDS011;10722;51.910;8.352;2022-11-20T14:37:02;39.67;;;22.53;;
21128;SDS011;10722;51.910;8.352;2022-11-20T14:39:51;38.27;;;22.67;;
21128;SDS011;10722;51.910;8.352;2022-11-20T14:42:38;40.53;;;24.37;;
21128;SDS011;10722;51.910;8.352;2022-11-20T14:45:28;38.37;;;22.17;;
21128;SDS011;10722;51.910;8.352;2022-11-20T14:48:13;38.93;;;22.20;;
21128;SDS011;10722;51.910;8.352;2022-11-20T14:51:00;37.37;;;22.77;;
21128;SDS011;10722;51.910;8.352;2022-11-20T14:53:45;39.53;;;23.33;;
21128;SDS011;10722;51.910;8.352;2022-11-20T14:56:30;37.80;;;21.33;;
21128;SDS011;10722;51.910;8.352;2022-11-20T14:59:21;37.97;;;22.53;;
21128;SDS011;10722;51.910;8.352;2022-11-20T15:02:09;54.30;;;30.23;;
21128;SDS011;10722;51.910;8.352;2022-11-20T15:04:57;41.23;;;25.23;;
21128;SDS011;10722;51.910;8.352;2022-11-20T15:07:45;41.17;;;24.27;;
21128;SDS011;10722;51.910;8.352;2022-11-20T15:10:32;42.97;;;25.43;;
21128;SDS011;10722;51.910;8.352;2022-11-20T15:20:26;45.33;;;26.50;;
21128;SDS011;10722;51.910;8.352;2022-11-20T15:23:17;43.67;;;25.70;;
21128;SDS011;10722;51.910;8.352;2022-11-20T15:26:09;40.77;;;24.77;;
21128;SDS011;10722;51.910;8.352;2022-11-20T15:29:03;39.90;;;24.27;;
21128;SDS011;10722;51.910;8.352;2022-11-20T15:31:49;42.43;;;23.83;;
21128;SDS011;10722;51.910;8.352;2022-11-20T15:34:34;39.60;;;23.80;;
21128;SDS011;10722;51.910;8.352;2022-11-20T15:37:19;39.03;;;24.13;;
21128;SDS011;10722;51.910;8.352;2022-11-20T15:40:09;41.47;;;23.43;;
21128;SDS011;10722;51.910;8.352;2022-11-20T15:42:55;38.47;;;23.23;;
21128;SDS011;10722;51.910;8.352;2022-11-20T15:48:48;38.57;;;22.87;;
21128;SDS011;10722;51.910;8.352;2022-11-20T15:51:37;41.03;;;23.27;;
21128;SDS011;10722;51.910;8.352;2022-11-20T15:54:24;38.97;;;23.30;;
21128;SDS011;10722;51.910;8.352;2022-11-20T15:57:09;38.53;;;23.63;;
21128;SDS011;10722;51.910;8.352;2022-11-20T16:00:00;38.90;;;24.40;;
21128;SDS011;10722;51.910;8.352;2022-11-20T16:02:48;39.93;;;23.53;;
21128;SDS011;10722;51.910;8.352;2022-11-20T16:05:33;42.37;;;24.03;;
21128;SDS011;10722;51.910;8.352;2022-11-20T16:08:18;41.10;;;24.07;;
21128;SDS011;10722;51.910;8.352;2022-11-20T16:11:03;38.97;;;23.43;;
21128;SDS011;10722;51.910;8.352;2022-11-20T16:13:48;35.93;;;21.33;;
21128;SDS011;10722;51.910;8.352;2022-11-20T16:16:37;35.90;;;22.47;;
21128;SDS011;10722;51.910;8.352;2022-11-20T16:19:23;34.90;;;21.87;;
21128;SDS011;10722;51.910;8.352;2022-11-20T16:22:10;42.00;;;26.07;;
21128;SDS011;10722;51.910;8.352;2022-11-20T16:24:55;38.23;;;23.47;;
21128;SDS011;10722;51.910;8.352;2022-11-20T16:27:40;37.90;;;23.00;;
21128;SDS011;10722;51.910;8.352;2022-11-20T16:30:26;36.97;;;21.67;;
21128;SDS011;10722;51.910;8.352;2022-11-20T16:33:11;38.37;;;22.87;;
21128;SDS011;10722;51.910;8.352;2022-11-20T16:36:05;37.70;;;22.63;;
21128;SDS011;10722;51.910;8.352;2022-11-20T16:38:59;38.97;;;22.60;;
21128;SDS011;10722;51.910;8.352;2022-11-20T16:41:46;37.07;;;21.33;;
21128;SDS011;10722;51.910;8.352;2022-11-20T16:44:32;37.27;;;21.77;;
21128;SDS011;10722;51.910;8.352;2022-11-20T16:47:17;32.60;;;19.53;;
21128;SDS011;10722;51.910;8.352;2022-11-20T16:50:03;35.90;;;21.07;;
21128;SDS011;10722;51.910;8.352;2022-11-20T16:52:49;32.60;;;18.97;;
21128;SDS011;10722;51.910;8.352;2022-11-20T16:55:34;32.47;;;19.37;;
21128;SDS011;10722;51.910;8.352;2022-11-20T16:58:21;31.77;;;18.80;;
21128;SDS011;10722;51.910;8.352;2022-11-20T17:01:06;34.10;;;18.83;;
21128;SDS011;10722;51.910;8.352;2022-11-20T17:04:00;31.60;;;18.37;;
21128;SDS011;10722;51.910;8.352;2022-11-20T17:06:47;33.50;;;19.83;;
21128;SDS011;10722;51.910;8.352;2022-11-20T17:09:33;32.23;;;19.50;;
21128;SDS011;10722;51.910;8.352;2022-11-20T17:12:18;32.60;;;19.07;;
21128;SDS011;10722;51.910;8.352;2022-11-20T17:15:03;33.63;;;19.37;;
21128;SDS011;10722;51.910;8.352;2022-11-20T17:17:48;73.57;;;40.67;;
21128;SDS011;10722;51.910;8.352;2022-11-20T17:20:33;34.60;;;20.20;;
21128;SDS011;10722;51.910;8.352;2022-11-20T17:23:18;34.83;;;20.47;;
21128;SDS011;10722;51.910;8.352;2022-11-20T17:26:22;36.43;;;20.37;;
21128;SDS011;10722;51.910;8.352;2022-11-20T17:29:15;36.47;;;20.57;;
21128;SDS011;10722;51.910;8.352;2022-11-20T17:32:02;34.40;;;19.33;;
21128;SDS011;10722;51.910;8.352;2022-11-20T17:34:47;35.07;;;19.77;;
21128;SDS011;10722;51.910;8.352;2022-11-20T17:37:33;33.77;;;19.03;;
21128;SDS011;10722;51.910;8.352;2022-11-20T17:40:18;32.80;;;19.20;;
21128;SDS011;10722;51.910;8.352;2022-11-20T17:43:09;33.63;;;18.90;;
21128;SDS011;10722;51.910;8.352;2022-11-20T17:45:55;35.80;;;19.20;;
21128;SDS011;10722;51.910;8.352;2022-11-20T17:48:40;37.13;;;19.67;;